Terminal Aerodrome Forecast
Issued by NWS Melbourne, FL

Home | Current Version | Previous Version | Text Only | Print | Product List | Glossary On
Versions: 1 2 3 4 5 6 7 8 9 10 11 12 13
684
FTUS42 KMLB 211836 AAA
TAFDAB
TAF AMD
KDAB 211836Z 2119/2218 08012G19KT P6SM SCT035 BKN050 BKN300
     FM220000 08005KT P6SM SCT025
     FM221400 10007KT P6SM SCT050 BKN100=

USA.gov is the U.S. government's official web portal to all federal, state and local government web resources and services.